sensor_id;sensor_type;location;lat;lon;timestamp;P1;durP1;ratioP1;P2;durP2;ratioP2
56269;SDS011;42176;43.240;27.880;2023-05-27T00:00:51;5.00;;;3.63;;
56269;SDS011;42176;43.240;27.880;2023-05-27T00:03:16;6.88;;;4.40;;
56269;SDS011;42176;43.240;27.880;2023-05-27T00:05:42;4.93;;;3.88;;
56269;SDS011;42176;43.240;27.880;2023-05-27T00:08:07;5.20;;;4.03;;
56269;SDS011;42176;43.240;27.880;2023-05-27T00:10:33;4.93;;;3.22;;
56269;SDS011;42176;43.240;27.880;2023-05-27T00:12:58;4.85;;;3.50;;
56269;SDS011;42176;43.240;27.880;2023-05-27T00:15:24;7.38;;;4.05;;
56269;SDS011;42176;43.240;27.880;2023-05-27T00:17:49;8.30;;;4.55;;
56269;SDS011;42176;43.240;27.880;2023-05-27T00:20:15;8.60;;;4.35;;
56269;SDS011;42176;43.240;27.880;2023-05-27T00:22:41;4.80;;;3.70;;
56269;SDS011;42176;43.240;27.880;2023-05-27T00:25:06;8.48;;;4.07;;
56269;SDS011;42176;43.240;27.880;2023-05-27T00:27:32;6.43;;;4.55;;
56269;SDS011;42176;43.240;27.880;2023-05-27T00:29:57;6.38;;;4.07;;
56269;SDS011;42176;43.240;27.880;2023-05-27T00:32:23;7.95;;;5.13;;
56269;SDS011;42176;43.240;27.880;2023-05-27T00:34:48;8.82;;;4.35;;
56269;SDS011;42176;43.240;27.880;2023-05-27T00:37:14;9.77;;;3.92;;
56269;SDS011;42176;43.240;27.880;2023-05-27T00:39:39;9.98;;;4.63;;
56269;SDS011;42176;43.240;27.880;2023-05-27T00:42:05;7.22;;;4.55;;
56269;SDS011;42176;43.240;27.880;2023-05-27T00:44:32;6.15;;;4.18;;
56269;SDS011;42176;43.240;27.880;2023-05-27T00:46:58;7.10;;;4.25;;
56269;SDS011;42176;43.240;27.880;2023-05-27T00:49:23;9.60;;;5.03;;
56269;SDS011;42176;43.240;27.880;2023-05-27T00:51:51;5.75;;;4.63;;
56269;SDS011;42176;43.240;27.880;2023-05-27T00:54:17;8.40;;;4.95;;
56269;SDS011;42176;43.240;27.880;2023-05-27T00:56:43;5.70;;;4.47;;
56269;SDS011;42176;43.240;27.880;2023-05-27T00:59:08;8.93;;;5.22;;
56269;SDS011;42176;43.240;27.880;2023-05-27T01:01:34;7.45;;;4.55;;
56269;SDS011;42176;43.240;27.880;2023-05-27T01:04:01;7.57;;;4.80;;
56269;SDS011;42176;43.240;27.880;2023-05-27T01:12:31;6.43;;;5.05;;
56269;SDS011;42176;43.240;27.880;2023-05-27T01:15:02;7.95;;;4.72;;
56269;SDS011;42176;43.240;27.880;2023-05-27T01:17:29;9.65;;;4.68;;
56269;SDS011;42176;43.240;27.880;2023-05-27T01:19:57;6.45;;;4.65;;
56269;SDS011;42176;43.240;27.880;2023-05-27T01:22:29;10.45;;;4.55;;
56269;SDS011;42176;43.240;27.880;2023-05-27T01:24:56;9.30;;;4.47;;
56269;SDS011;42176;43.240;27.880;2023-05-27T01:27:21;8.30;;;4.90;;
56269;SDS011;42176;43.240;27.880;2023-05-27T01:29:50;5.68;;;4.43;;
56269;SDS011;42176;43.240;27.880;2023-05-27T01:35:02;6.95;;;4.60;;
56269;SDS011;42176;43.240;27.880;2023-05-27T01:37:38;6.55;;;4.82;;
56269;SDS011;42176;43.240;27.880;2023-05-27T01:40:07;6.53;;;5.10;;
56269;SDS011;42176;43.240;27.880;2023-05-27T01:42:37;9.20;;;4.95;;
56269;SDS011;42176;43.240;27.880;2023-05-27T01:45:05;5.82;;;4.93;;
56269;SDS011;42176;43.240;27.880;2023-05-27T01:47:32;9.35;;;4.82;;
56269;SDS011;42176;43.240;27.880;2023-05-27T01:49:58;6.15;;;4.45;;
56269;SDS011;42176;43.240;27.880;2023-05-27T01:52:23;8.00;;;4.07;;
56269;SDS011;42176;43.240;27.880;2023-05-27T01:54:49;9.38;;;4.80;;
56269;SDS011;42176;43.240;27.880;2023-05-27T01:57:14;9.85;;;4.05;;
56269;SDS011;42176;43.240;27.880;2023-05-27T01:59:40;8.60;;;4.13;;
56269;SDS011;42176;43.240;27.880;2023-05-27T02:02:06;6.28;;;4.20;;
56269;SDS011;42176;43.240;27.880;2023-05-27T02:04:31;6.93;;;4.38;;
56269;SDS011;42176;43.240;27.880;2023-05-27T02:06:57;5.43;;;4.38;;
56269;SDS011;42176;43.240;27.880;2023-05-27T02:09:22;8.68;;;5.10;;
56269;SDS011;42176;43.240;27.880;2023-05-27T02:11:47;5.03;;;4.15;;
56269;SDS011;42176;43.240;27.880;2023-05-27T02:14:13;6.95;;;5.05;;
56269;SDS011;42176;43.240;27.880;2023-05-27T02:16:39;6.50;;;4.20;;
56269;SDS011;42176;43.240;27.880;2023-05-27T02:19:04;6.18;;;4.20;;
56269;SDS011;42176;43.240;27.880;2023-05-27T02:21:30;4.97;;;4.47;;
56269;SDS011;42176;43.240;27.880;2023-05-27T02:23:56;7.82;;;4.72;;
56269;SDS011;42176;43.240;27.880;2023-05-27T02:26:21;6.22;;;4.53;;
56269;SDS011;42176;43.240;27.880;2023-05-27T02:28:47;8.38;;;4.07;;
56269;SDS011;42176;43.240;27.880;2023-05-27T02:31:12;7.22;;;4.68;;
56269;SDS011;42176;43.240;27.880;2023-05-27T02:33:38;10.70;;;4.93;;
56269;SDS011;42176;43.240;27.880;2023-05-27T02:36:04;6.18;;;3.72;;
56269;SDS011;42176;43.240;27.880;2023-05-27T02:38:30;6.03;;;4.43;;
56269;SDS011;42176;43.240;27.880;2023-05-27T02:40:56;7.63;;;4.50;;
56269;SDS011;42176;43.240;27.880;2023-05-27T02:43:21;6.13;;;4.68;;
56269;SDS011;42176;43.240;27.880;2023-05-27T02:45:47;5.15;;;4.32;;
56269;SDS011;42176;43.240;27.880;2023-05-27T02:48:12;7.45;;;3.03;;
56269;SDS011;42176;43.240;27.880;2023-05-27T02:50:38;4.90;;;3.75;;
56269;SDS011;42176;43.240;27.880;2023-05-27T02:53:04;6.88;;;4.15;;
56269;SDS011;42176;43.240;27.880;2023-05-27T02:55:29;6.03;;;4.10;;
56269;SDS011;42176;43.240;27.880;2023-05-27T02:57:55;5.18;;;4.18;;
56269;SDS011;42176;43.240;27.880;2023-05-27T03:00:20;5.40;;;3.85;;
56269;SDS011;42176;43.240;27.880;2023-05-27T03:02:46;8.00;;;4.43;;
56269;SDS011;42176;43.240;27.880;2023-05-27T03:05:12;6.35;;;4.30;;
56269;SDS011;42176;43.240;27.880;2023-05-27T03:07:38;6.05;;;4.50;;
56269;SDS011;42176;43.240;27.880;2023-05-27T03:10:06;8.98;;;4.60;;
56269;SDS011;42176;43.240;27.880;2023-05-27T03:12:32;7.85;;;4.75;;
56269;SDS011;42176;43.240;27.880;2023-05-27T03:14:58;6.45;;;4.70;;
56269;SDS011;42176;43.240;27.880;2023-05-27T03:17:23;6.75;;;4.03;;
56269;SDS011;42176;43.240;27.880;2023-05-27T03:19:49;7.15;;;4.10;;
56269;SDS011;42176;43.240;27.880;2023-05-27T03:22:14;6.75;;;3.90;;
56269;SDS011;42176;43.240;27.880;2023-05-27T03:24:40;4.78;;;4.30;;
56269;SDS011;42176;43.240;27.880;2023-05-27T03:27:06;6.32;;;3.67;;
56269;SDS011;42176;43.240;27.880;2023-05-27T03:29:32;7.10;;;3.88;;
56269;SDS011;42176;43.240;27.880;2023-05-27T03:31:57;4.65;;;3.78;;
56269;SDS011;42176;43.240;27.880;2023-05-27T03:34:23;5.40;;;3.63;;
56269;SDS011;42176;43.240;27.880;2023-05-27T03:36:48;8.32;;;3.33;;
56269;SDS011;42176;43.240;27.880;2023-05-27T03:39:15;3.65;;;3.13;;
56269;SDS011;42176;43.240;27.880;2023-05-27T03:41:41;7.50;;;3.05;;
56269;SDS011;42176;43.240;27.880;2023-05-27T03:44:08;7.10;;;3.40;;
56269;SDS011;42176;43.240;27.880;2023-05-27T03:46:33;3.10;;;2.80;;
56269;SDS011;42176;43.240;27.880;2023-05-27T03:48:59;4.80;;;3.25;;
56269;SDS011;42176;43.240;27.880;2023-05-27T03:51:25;4.88;;;3.30;;
56269;SDS011;42176;43.240;27.880;2023-05-27T03:53:51;5.85;;;2.88;;
56269;SDS011;42176;43.240;27.880;2023-05-27T03:56:16;3.20;;;2.90;;
56269;SDS011;42176;43.240;27.880;2023-05-27T03:58:42;4.78;;;3.08;;
56269;SDS011;42176;43.240;27.880;2023-05-27T04:01:07;4.32;;;3.05;;
56269;SDS011;42176;43.240;27.880;2023-05-27T04:03:33;3.92;;;2.70;;
56269;SDS011;42176;43.240;27.880;2023-05-27T04:05:59;3.10;;;2.65;;
56269;SDS011;42176;43.240;27.880;2023-05-27T04:08:24;6.30;;;3.35;;
56269;SDS011;42176;43.240;27.880;2023-05-27T04:10:54;3.58;;;2.97;;
56269;SDS011;42176;43.240;27.880;2023-05-27T04:13:20;4.85;;;2.80;;
56269;SDS011;42176;43.240;27.880;2023-05-27T04:15:46;5.15;;;2.90;;
56269;SDS011;42176;43.240;27.880;2023-05-27T04:18:12;5.93;;;3.17;;
56269;SDS011;42176;43.240;27.880;2023-05-27T04:20:38;3.22;;;2.63;;
56269;SDS011;42176;43.240;27.880;2023-05-27T04:23:07;3.55;;;3.25;;
56269;SDS011;42176;43.240;27.880;2023-05-27T04:25:33;2.22;;;2.00;;
56269;SDS011;42176;43.240;27.880;2023-05-27T04:28:00;6.05;;;3.63;;
56269;SDS011;42176;43.240;27.880;2023-05-27T04:30:29;4.68;;;3.10;;
56269;SDS011;42176;43.240;27.880;2023-05-27T04:32:55;5.70;;;3.10;;
56269;SDS011;42176;43.240;27.880;2023-05-27T04:35:21;5.15;;;3.15;;
56269;SDS011;42176;43.240;27.880;2023-05-27T04:37:47;4.28;;;3.05;;
56269;SDS011;42176;43.240;27.880;2023-05-27T04:40:13;5.40;;;2.88;;
56269;SDS011;42176;43.240;27.880;2023-05-27T04:42:38;4.75;;;3.08;;
56269;SDS011;42176;43.240;27.880;2023-05-27T04:45:04;5.15;;;3.00;;
56269;SDS011;42176;43.240;27.880;2023-05-27T04:47:31;7.82;;;3.35;;
56269;SDS011;42176;43.240;27.880;2023-05-27T04:49:58;4.45;;;3.22;;
56269;SDS011;42176;43.240;27.880;2023-05-27T04:52:25;6.82;;;3.30;;
56269;SDS011;42176;43.240;27.880;2023-05-27T04:54:51;5.38;;;3.05;;
56269;SDS011;42176;43.240;27.880;2023-05-27T04:59:54;4.30;;;2.80;;
56269;SDS011;42176;43.240;27.880;2023-05-27T05:02:39;6.60;;;3.42;;
56269;SDS011;42176;43.240;27.880;2023-05-27T05:05:07;5.18;;;3.88;;
56269;SDS011;42176;43.240;27.880;2023-05-27T05:07:36;3.47;;;3.10;;
56269;SDS011;42176;43.240;27.880;2023-05-27T05:10:04;4.13;;;3.55;;
56269;SDS011;42176;43.240;27.880;2023-05-27T05:12:31;7.70;;;3.50;;
56269;SDS011;42176;43.240;27.880;2023-05-27T05:14:57;5.32;;;3.80;;
56269;SDS011;42176;43.240;27.880;2023-05-27T05:17:23;11.00;;;3.78;;
56269;SDS011;42176;43.240;27.880;2023-05-27T05:19:49;5.05;;;3.63;;
56269;SDS011;42176;43.240;27.880;2023-05-27T05:22:16;7.15;;;3.53;;
56269;SDS011;42176;43.240;27.880;2023-05-27T05:24:43;5.45;;;3.50;;
56269;SDS011;42176;43.240;27.880;2023-05-27T05:27:10;4.40;;;3.50;;
56269;SDS011;42176;43.240;27.880;2023-05-27T05:29:35;5.15;;;3.83;;
56269;SDS011;42176;43.240;27.880;2023-05-27T05:32:01;9.32;;;3.88;;
56269;SDS011;42176;43.240;27.880;2023-05-27T05:34:27;6.03;;;4.10;;
56269;SDS011;42176;43.240;27.880;2023-05-27T05:36:53;4.38;;;3.90;;
56269;SDS011;42176;43.240;27.880;2023-05-27T05:39:18;8.68;;;4.32;;
56269;SDS011;42176;43.240;27.880;2023-05-27T05:41:45;8.43;;;4.15;;
56269;SDS011;42176;43.240;27.880;2023-05-27T05:44:11;6.18;;;4.43;;
56269;SDS011;42176;43.240;27.880;2023-05-27T05:46:36;10.93;;;5.28;;
56269;SDS011;42176;43.240;27.880;2023-05-27T05:49:02;8.10;;;4.25;;
56269;SDS011;42176;43.240;27.880;2023-05-27T05:51:27;6.85;;;4.57;;
56269;SDS011;42176;43.240;27.880;2023-05-27T05:53:53;8.55;;;4.18;;
56269;SDS011;42176;43.240;27.880;2023-05-27T05:56:18;8.93;;;4.70;;
56269;SDS011;42176;43.240;27.880;2023-05-27T05:58:44;7.40;;;4.05;;
56269;SDS011;42176;43.240;27.880;2023-05-27T06:01:10;8.35;;;4.80;;
56269;SDS011;42176;43.240;27.880;2023-05-27T06:03:36;6.50;;;4.22;;
56269;SDS011;42176;43.240;27.880;2023-05-27T06:06:01;5.85;;;4.60;;
56269;SDS011;42176;43.240;27.880;2023-05-27T06:08:27;6.53;;;4.85;;
56269;SDS011;42176;43.240;27.880;2023-05-27T06:10:53;7.78;;;4.68;;
56269;SDS011;42176;43.240;27.880;2023-05-27T06:13:19;9.95;;;4.65;;
56269;SDS011;42176;43.240;27.880;2023-05-27T06:15:44;8.30;;;5.80;;
56269;SDS011;42176;43.240;27.880;2023-05-27T06:18:10;8.82;;;4.57;;
56269;SDS011;42176;43.240;27.880;2023-05-27T06:20:36;7.50;;;4.90;;
56269;SDS011;42176;43.240;27.880;2023-05-27T06:23:01;10.18;;;4.68;;
56269;SDS011;42176;43.240;27.880;2023-05-27T06:25:27;8.45;;;5.75;;
56269;SDS011;42176;43.240;27.880;2023-05-27T06:27:53;17.23;;;5.30;;
56269;SDS011;42176;43.240;27.880;2023-05-27T06:30:19;7.00;;;5.30;;
56269;SDS011;42176;43.240;27.880;2023-05-27T06:32:44;9.10;;;4.75;;
56269;SDS011;42176;43.240;27.880;2023-05-27T06:35:10;6.85;;;5.05;;
56269;SDS011;42176;43.240;27.880;2023-05-27T06:37:35;6.38;;;5.00;;
56269;SDS011;42176;43.240;27.880;2023-05-27T06:40:01;8.60;;;4.65;;
56269;SDS011;42176;43.240;27.880;2023-05-27T06:42:27;9.98;;;6.70;;
56269;SDS011;42176;43.240;27.880;2023-05-27T06:44:52;8.23;;;5.55;;
56269;SDS011;42176;43.240;27.880;2023-05-27T06:47:17;9.23;;;5.65;;
56269;SDS011;42176;43.240;27.880;2023-05-27T06:49:43;10.15;;;5.47;;
56269;SDS011;42176;43.240;27.880;2023-05-27T06:52:09;10.48;;;5.90;;
56269;SDS011;42176;43.240;27.880;2023-05-27T06:54:35;8.35;;;5.40;;
56269;SDS011;42176;43.240;27.880;2023-05-27T06:57:01;9.05;;;5.65;;
56269;SDS011;42176;43.240;27.880;2023-05-27T06:59:27;8.25;;;5.28;;
56269;SDS011;42176;43.240;27.880;2023-05-27T07:01:53;6.82;;;5.22;;
56269;SDS011;42176;43.240;27.880;2023-05-27T07:04:21;6.88;;;5.30;;
56269;SDS011;42176;43.240;27.880;2023-05-27T07:06:46;11.25;;;5.90;;
56269;SDS011;42176;43.240;27.880;2023-05-27T07:09:12;12.98;;;6.45;;
56269;SDS011;42176;43.240;27.880;2023-05-27T07:11:38;9.73;;;5.95;;
56269;SDS011;42176;43.240;27.880;2023-05-27T07:14:04;11.20;;;5.65;;
56269;SDS011;42176;43.240;27.880;2023-05-27T07:16:30;11.55;;;5.43;;
56269;SDS011;42176;43.240;27.880;2023-05-27T07:18:55;6.40;;;5.43;;
56269;SDS011;42176;43.240;27.880;2023-05-27T07:21:21;6.50;;;5.45;;
56269;SDS011;42176;43.240;27.880;2023-05-27T07:23:47;13.68;;;6.32;;
56269;SDS011;42176;43.240;27.880;2023-05-27T07:26:12;6.70;;;5.65;;
56269;SDS011;42176;43.240;27.880;2023-05-27T07:28:37;10.30;;;5.80;;
56269;SDS011;42176;43.240;27.880;2023-05-27T07:31:03;7.47;;;5.82;;
56269;SDS011;42176;43.240;27.880;2023-05-27T07:33:29;11.20;;;7.35;;
56269;SDS011;42176;43.240;27.880;2023-05-27T07:35:55;9.68;;;7.20;;
56269;SDS011;42176;43.240;27.880;2023-05-27T07:38:21;8.80;;;5.18;;
56269;SDS011;42176;43.240;27.880;2023-05-27T07:40:46;8.77;;;5.72;;
56269;SDS011;42176;43.240;27.880;2023-05-27T07:43:12;8.85;;;5.55;;
56269;SDS011;42176;43.240;27.880;2023-05-27T07:45:37;7.00;;;5.38;;
56269;SDS011;42176;43.240;27.880;2023-05-27T07:48:03;11.85;;;5.60;;
56269;SDS011;42176;43.240;27.880;2023-05-27T07:50:28;8.35;;;5.68;;
56269;SDS011;42176;43.240;27.880;2023-05-27T07:52:54;8.35;;;5.30;;
56269;SDS011;42176;43.240;27.880;2023-05-27T07:55:19;10.48;;;5.55;;
56269;SDS011;42176;43.240;27.880;2023-05-27T07:57:45;10.40;;;4.93;;
56269;SDS011;42176;43.240;27.880;2023-05-27T08:00:10;8.10;;;5.22;;
56269;SDS011;42176;43.240;27.880;2023-05-27T08:02:36;8.98;;;5.50;;
56269;SDS011;42176;43.240;27.880;2023-05-27T08:05:02;8.35;;;5.20;;
56269;SDS011;42176;43.240;27.880;2023-05-27T08:07:29;8.68;;;5.38;;
56269;SDS011;42176;43.240;27.880;2023-05-27T08:09:55;6.72;;;5.25;;
56269;SDS011;42176;43.240;27.880;2023-05-27T08:12:20;9.57;;;5.53;;
56269;SDS011;42176;43.240;27.880;2023-05-27T08:14:46;8.40;;;4.97;;
56269;SDS011;42176;43.240;27.880;2023-05-27T08:17:13;7.35;;;5.43;;
56269;SDS011;42176;43.240;27.880;2023-05-27T08:19:38;5.63;;;5.03;;
56269;SDS011;42176;43.240;27.880;2023-05-27T08:22:04;6.70;;;4.75;;
56269;SDS011;42176;43.240;27.880;2023-05-27T08:24:33;6.45;;;4.72;;
56269;SDS011;42176;43.240;27.880;2023-05-27T08:26:59;9.88;;;4.90;;
56269;SDS011;42176;43.240;27.880;2023-05-27T08:29:25;10.93;;;4.68;;
56269;SDS011;42176;43.240;27.880;2023-05-27T08:31:52;5.03;;;4.45;;
56269;SDS011;42176;43.240;27.880;2023-05-27T08:34:18;5.07;;;4.38;;
56269;SDS011;42176;43.240;27.880;2023-05-27T08:36:44;7.40;;;4.63;;
56269;SDS011;42176;43.240;27.880;2023-05-27T08:39:09;7.75;;;3.97;;
56269;SDS011;42176;43.240;27.880;2023-05-27T08:41:35;9.95;;;6.80;;
56269;SDS011;42176;43.240;27.880;2023-05-27T08:44:01;9.48;;;4.80;;
56269;SDS011;42176;43.240;27.880;2023-05-27T08:46:27;6.75;;;3.90;;
56269;SDS011;42176;43.240;27.880;2023-05-27T08:48:53;6.57;;;3.67;;
56269;SDS011;42176;43.240;27.880;2023-05-27T08:51:20;7.60;;;3.80;;
56269;SDS011;42176;43.240;27.880;2023-05-27T08:53:46;9.95;;;3.75;;
56269;SDS011;42176;43.240;27.880;2023-05-27T08:56:14;6.65;;;3.55;;
56269;SDS011;42176;43.240;27.880;2023-05-27T08:58:41;8.27;;;3.90;;
56269;SDS011;42176;43.240;27.880;2023-05-27T09:01:06;7.65;;;4.85;;
56269;SDS011;42176;43.240;27.880;2023-05-27T09:03:33;7.65;;;5.28;;
56269;SDS011;42176;43.240;27.880;2023-05-27T09:05:58;8.77;;;5.88;;
56269;SDS011;42176;43.240;27.880;2023-05-27T09:08:26;9.25;;;5.70;;
56269;SDS011;42176;43.240;27.880;2023-05-27T09:10:52;9.90;;;5.82;;
56269;SDS011;42176;43.240;27.880;2023-05-27T09:13:27;6.57;;;5.22;;
56269;SDS011;42176;43.240;27.880;2023-05-27T09:16:01;7.63;;;5.25;;
56269;SDS011;42176;43.240;27.880;2023-05-27T09:18:32;9.60;;;6.95;;
56269;SDS011;42176;43.240;27.880;2023-05-27T09:23:25;9.25;;;6.40;;
56269;SDS011;42176;43.240;27.880;2023-05-27T09:25:51;7.70;;;5.78;;
56269;SDS011;42176;43.240;27.880;2023-05-27T09:28:21;11.07;;;5.90;;
56269;SDS011;42176;43.240;27.880;2023-05-27T09:30:50;10.15;;;6.07;;
56269;SDS011;42176;43.240;27.880;2023-05-27T09:33:22;9.18;;;6.00;;
56269;SDS011;42176;43.240;27.880;2023-05-27T09:35:48;14.20;;;6.45;;
56269;SDS011;42176;43.240;27.880;2023-05-27T09:38:14;11.77;;;6.22;;
56269;SDS011;42176;43.240;27.880;2023-05-27T09:40:39;22.30;;;7.32;;
56269;SDS011;42176;43.240;27.880;2023-05-27T09:43:12;11.38;;;6.53;;
56269;SDS011;42176;43.240;27.880;2023-05-27T09:45:38;12.23;;;6.85;;
56269;SDS011;42176;43.240;27.880;2023-05-27T09:48:06;13.38;;;6.55;;
56269;SDS011;42176;43.240;27.880;2023-05-27T09:50:33;10.70;;;5.50;;
56269;SDS011;42176;43.240;27.880;2023-05-27T09:53:00;9.70;;;6.80;;
56269;SDS011;42176;43.240;27.880;2023-05-27T09:55:29;10.98;;;6.28;;
56269;SDS011;42176;43.240;27.880;2023-05-27T09:57:55;11.18;;;6.57;;
56269;SDS011;42176;43.240;27.880;2023-05-27T10:00:20;8.15;;;5.60;;
56269;SDS011;42176;43.240;27.880;2023-05-27T10:02:47;8.40;;;5.72;;
56269;SDS011;42176;43.240;27.880;2023-05-27T10:05:14;12.43;;;7.13;;
56269;SDS011;42176;43.240;27.880;2023-05-27T10:07:42;11.32;;;7.88;;
56269;SDS011;42176;43.240;27.880;2023-05-27T10:10:12;12.88;;;7.80;;
56269;SDS011;42176;43.240;27.880;2023-05-27T10:12:45;14.13;;;6.68;;
56269;SDS011;42176;43.240;27.880;2023-05-27T10:15:24;11.18;;;6.50;;
56269;SDS011;42176;43.240;27.880;2023-05-27T10:17:55;19.75;;;7.82;;
56269;SDS011;42176;43.240;27.880;2023-05-27T10:20:29;23.77;;;9.60;;
56269;SDS011;42176;43.240;27.880;2023-05-27T10:23:09;18.55;;;9.20;;
56269;SDS011;42176;43.240;27.880;2023-05-27T10:25:38;12.80;;;7.97;;
56269;SDS011;42176;43.240;27.880;2023-05-27T10:28:05;13.52;;;8.02;;
56269;SDS011;42176;43.240;27.880;2023-05-27T10:30:41;12.57;;;9.45;;
56269;SDS011;42176;43.240;27.880;2023-05-27T10:33:09;16.40;;;9.52;;
56269;SDS011;42176;43.240;27.880;2023-05-27T10:35:44;14.63;;;10.10;;
56269;SDS011;42176;43.240;27.880;2023-05-27T10:38:17;16.15;;;8.82;;
56269;SDS011;42176;43.240;27.880;2023-05-27T10:40:46;10.43;;;7.78;;
56269;SDS011;42176;43.240;27.880;2023-05-27T10:45:46;10.57;;;5.43;;
56269;SDS011;42176;43.240;27.880;2023-05-27T10:48:16;8.18;;;3.88;;
56269;SDS011;42176;43.240;27.880;2023-05-27T10:50:51;13.13;;;4.68;;
56269;SDS011;42176;43.240;27.880;2023-05-27T10:53:18;9.50;;;5.35;;
56269;SDS011;42176;43.240;27.880;2023-05-27T10:55:47;10.30;;;7.00;;
56269;SDS011;42176;43.240;27.880;2023-05-27T10:58:15;15.63;;;7.38;;
56269;SDS011;42176;43.240;27.880;2023-05-27T11:00:44;16.27;;;8.52;;
56269;SDS011;42176;43.240;27.880;2023-05-27T11:03:21;15.52;;;10.30;;
56269;SDS011;42176;43.240;27.880;2023-05-27T11:08:23;17.60;;;10.35;;
56269;SDS011;42176;43.240;27.880;2023-05-27T11:10:49;16.48;;;10.77;;
56269;SDS011;42176;43.240;27.880;2023-05-27T11:13:15;17.50;;;10.80;;
56269;SDS011;42176;43.240;27.880;2023-05-27T11:15:40;17.75;;;11.27;;
56269;SDS011;42176;43.240;27.880;2023-05-27T11:18:09;16.55;;;11.10;;
56269;SDS011;42176;43.240;27.880;2023-05-27T11:20:35;16.65;;;11.20;;
56269;SDS011;42176;43.240;27.880;2023-05-27T11:23:03;18.42;;;11.38;;
56269;SDS011;42176;43.240;27.880;2023-05-27T11:25:29;19.98;;;12.25;;
56269;SDS011;42176;43.240;27.880;2023-05-27T11:28:05;19.98;;;13.55;;
56269;SDS011;42176;43.240;27.880;2023-05-27T11:30:38;17.60;;;12.55;;
56269;SDS011;42176;43.240;27.880;2023-05-27T11:33:04;21.80;;;14.32;;
56269;SDS011;42176;43.240;27.880;2023-05-27T11:35:30;31.05;;;15.70;;
56269;SDS011;42176;43.240;27.880;2023-05-27T11:37:55;23.77;;;15.55;;
56269;SDS011;42176;43.240;27.880;2023-05-27T11:40:22;22.85;;;14.82;;
56269;SDS011;42176;43.240;27.880;2023-05-27T11:42:47;22.30;;;14.50;;
56269;SDS011;42176;43.240;27.880;2023-05-27T11:45:17;18.13;;;12.30;;
56269;SDS011;42176;43.240;27.880;2023-05-27T11:47:44;17.75;;;12.52;;
56269;SDS011;42176;43.240;27.880;2023-05-27T11:50:16;18.42;;;10.90;;
56269;SDS011;42176;43.240;27.880;2023-05-27T11:52:50;12.73;;;8.45;;
56269;SDS011;42176;43.240;27.880;2023-05-27T11:55:19;13.38;;;8.30;;
56269;SDS011;42176;43.240;27.880;2023-05-27T11:57:45;9.38;;;7.18;;
56269;SDS011;42176;43.240;27.880;2023-05-27T12:00:10;18.00;;;8.25;;
56269;SDS011;42176;43.240;27.880;2023-05-27T12:02:37;13.25;;;8.38;;
56269;SDS011;42176;43.240;27.880;2023-05-27T12:05:02;10.82;;;8.02;;
56269;SDS011;42176;43.240;27.880;2023-05-27T12:07:28;13.50;;;9.27;;
56269;SDS011;42176;43.240;27.880;2023-05-27T12:09:53;11.07;;;8.85;;
56269;SDS011;42176;43.240;27.880;2023-05-27T12:12:19;10.82;;;8.18;;
56269;SDS011;42176;43.240;27.880;2023-05-27T12:14:45;9.23;;;7.47;;
56269;SDS011;42176;43.240;27.880;2023-05-27T12:17:10;9.10;;;6.13;;
56269;SDS011;42176;43.240;27.880;2023-05-27T12:19:36;10.65;;;6.38;;
56269;SDS011;42176;43.240;27.880;2023-05-27T12:22:02;13.57;;;6.72;;
56269;SDS011;42176;43.240;27.880;2023-05-27T12:24:27;8.15;;;5.25;;
56269;SDS011;42176;43.240;27.880;2023-05-27T12:26:53;6.55;;;5.70;;
56269;SDS011;42176;43.240;27.880;2023-05-27T12:29:18;12.50;;;4.78;;
56269;SDS011;42176;43.240;27.880;2023-05-27T12:31:46;6.43;;;4.65;;
56269;SDS011;42176;43.240;27.880;2023-05-27T12:34:12;7.10;;;5.30;;
56269;SDS011;42176;43.240;27.880;2023-05-27T12:36:38;7.90;;;5.63;;
56269;SDS011;42176;43.240;27.880;2023-05-27T12:39:03;9.70;;;5.25;;
56269;SDS011;42176;43.240;27.880;2023-05-27T12:41:29;10.77;;;5.60;;
56269;SDS011;42176;43.240;27.880;2023-05-27T12:43:55;8.48;;;4.68;;
56269;SDS011;42176;43.240;27.880;2023-05-27T12:46:20;5.88;;;4.63;;
56269;SDS011;42176;43.240;27.880;2023-05-27T12:48:46;8.50;;;4.90;;
56269;SDS011;42176;43.240;27.880;2023-05-27T12:51:11;7.00;;;4.95;;
56269;SDS011;42176;43.240;27.880;2023-05-27T12:53:37;11.30;;;6.95;;
56269;SDS011;42176;43.240;27.880;2023-05-27T12:56:02;18.40;;;6.07;;
56269;SDS011;42176;43.240;27.880;2023-05-27T12:58:28;14.75;;;5.10;;
56269;SDS011;42176;43.240;27.880;2023-05-27T13:00:53;9.52;;;5.15;;
56269;SDS011;42176;43.240;27.880;2023-05-27T13:03:19;8.90;;;5.60;;
56269;SDS011;42176;43.240;27.880;2023-05-27T13:05:44;11.57;;;5.88;;
56269;SDS011;42176;43.240;27.880;2023-05-27T13:08:10;6.30;;;4.30;;
56269;SDS011;42176;43.240;27.880;2023-05-27T13:10:35;10.07;;;6.00;;
56269;SDS011;42176;43.240;27.880;2023-05-27T13:13:01;14.15;;;7.07;;
56269;SDS011;42176;43.240;27.880;2023-05-27T13:15:28;7.25;;;4.75;;
56269;SDS011;42176;43.240;27.880;2023-05-27T13:17:54;10.00;;;5.05;;
56269;SDS011;42176;43.240;27.880;2023-05-27T13:20:20;12.27;;;5.65;;
56269;SDS011;42176;43.240;27.880;2023-05-27T13:22:47;12.23;;;5.35;;
56269;SDS011;42176;43.240;27.880;2023-05-27T13:25:13;10.02;;;5.32;;
56269;SDS011;42176;43.240;27.880;2023-05-27T13:27:39;11.40;;;4.80;;
56269;SDS011;42176;43.240;27.880;2023-05-27T13:30:12;7.85;;;4.70;;
56269;SDS011;42176;43.240;27.880;2023-05-27T13:32:39;5.88;;;4.25;;
56269;SDS011;42176;43.240;27.880;2023-05-27T13:35:05;4.97;;;3.97;;
56269;SDS011;42176;43.240;27.880;2023-05-27T13:37:30;5.22;;;4.13;;
56269;SDS011;42176;43.240;27.880;2023-05-27T13:39:56;9.27;;;4.65;;
56269;SDS011;42176;43.240;27.880;2023-05-27T13:42:22;8.35;;;4.45;;
56269;SDS011;42176;43.240;27.880;2023-05-27T13:44:48;22.95;;;6.32;;
56269;SDS011;42176;43.240;27.880;2023-05-27T13:47:13;10.68;;;4.75;;
56269;SDS011;42176;43.240;27.880;2023-05-27T13:49:39;10.25;;;4.88;;
56269;SDS011;42176;43.240;27.880;2023-05-27T13:52:04;15.23;;;5.10;;
56269;SDS011;42176;43.240;27.880;2023-05-27T13:54:30;10.80;;;4.38;;
56269;SDS011;42176;43.240;27.880;2023-05-27T13:56:55;5.50;;;3.78;;
56269;SDS011;42176;43.240;27.880;2023-05-27T13:59:20;7.75;;;3.53;;
56269;SDS011;42176;43.240;27.880;2023-05-27T14:01:46;15.95;;;5.22;;
56269;SDS011;42176;43.240;27.880;2023-05-27T14:04:11;9.13;;;4.18;;
56269;SDS011;42176;43.240;27.880;2023-05-27T14:06:37;12.40;;;4.60;;
56269;SDS011;42176;43.240;27.880;2023-05-27T14:09:02;5.88;;;3.88;;
56269;SDS011;42176;43.240;27.880;2023-05-27T14:11:28;10.63;;;4.60;;
56269;SDS011;42176;43.240;27.880;2023-05-27T14:13:53;13.30;;;4.90;;
56269;SDS011;42176;43.240;27.880;2023-05-27T14:16:21;11.18;;;4.72;;
56269;SDS011;42176;43.240;27.880;2023-05-27T14:18:48;10.02;;;6.10;;
56269;SDS011;42176;43.240;27.880;2023-05-27T14:21:16;19.50;;;6.38;;
56269;SDS011;42176;43.240;27.880;2023-05-27T14:23:43;8.63;;;4.30;;
56269;SDS011;42176;43.240;27.880;2023-05-27T14:26:09;7.93;;;4.47;;
56269;SDS011;42176;43.240;27.880;2023-05-27T14:28:34;7.25;;;4.22;;
56269;SDS011;42176;43.240;27.880;2023-05-27T14:31:00;4.97;;;4.00;;
56269;SDS011;42176;43.240;27.880;2023-05-27T14:33:25;21.27;;;5.38;;
56269;SDS011;42176;43.240;27.880;2023-05-27T14:35:51;9.52;;;3.88;;
56269;SDS011;42176;43.240;27.880;2023-05-27T14:38:16;6.10;;;3.20;;
56269;SDS011;42176;43.240;27.880;2023-05-27T14:40:42;8.20;;;3.65;;
56269;SDS011;42176;43.240;27.880;2023-05-27T14:43:11;4.93;;;3.30;;
56269;SDS011;42176;43.240;27.880;2023-05-27T14:45:40;9.70;;;3.15;;